createdAt,value
2018-08-22T00:01:20.623Z,93.90
2018-08-22T00:03:49.904Z,93.90
2018-08-22T00:06:19.238Z,93.90
2018-08-22T00:08:48.680Z,93.70
2018-08-22T00:11:18.132Z,93.70
2018-08-22T00:13:47.358Z,93.80
2018-08-22T00:16:16.664Z,93.80
2018-08-22T00:18:46.081Z,93.80
2018-08-22T00:21:15.527Z,93.80
2018-08-22T00:23:44.781Z,93.90
2018-08-22T00:26:14.108Z,93.90
2018-08-22T00:28:43.403Z,93.90
2018-08-22T00:31:12.677Z,93.90
2018-08-22T00:33:42.156Z,93.90
2018-08-22T00:36:11.387Z,93.80
2018-08-22T00:38:40.707Z,93.80
2018-08-22T00:41:10.004Z,93.70
2018-08-22T00:43:39.465Z,93.60
2018-08-22T00:46:08.743Z,93.50
2018-08-22T00:48:37.914Z,93.60
2018-08-22T00:51:07.292Z,93.40
2018-08-22T00:53:36.414Z,93.50
2018-08-22T00:56:05.747Z,93.50
2018-08-22T00:58:35.208Z,93.50
2018-08-22T01:01:04.507Z,93.50
2018-08-22T01:03:33.796Z,93.50
2018-08-22T01:06:03.013Z,93.50
2018-08-22T01:08:32.420Z,93.70
2018-08-22T01:11:01.656Z,93.40
2018-08-22T01:13:31.052Z,93.40
2018-08-22T01:16:00.459Z,93.60
2018-08-22T01:18:29.931Z,93.60
2018-08-22T01:20:59.294Z,93.60
2018-08-22T01:23:28.623Z,93.60
2018-08-22T01:25:57.795Z,93.60
2018-08-22T01:28:27.234Z,93.70
2018-08-22T01:30:56.447Z,93.70
2018-08-22T01:33:25.721Z,93.60
2018-08-22T01:35:55.356Z,93.70
2018-08-22T01:38:24.710Z,93.80
2018-08-22T01:40:54.115Z,93.80
2018-08-22T01:43:23.704Z,93.70
2018-08-22T01:45:53.005Z,93.70
2018-08-22T01:48:22.334Z,93.80
2018-08-22T01:50:51.812Z,93.80
2018-08-22T01:53:21.024Z,93.90
2018-08-22T01:55:50.463Z,94.00
2018-08-22T01:58:20.607Z,94.00
2018-08-22T02:00:50.053Z,94.00
2018-08-22T02:03:19.377Z,94.00
2018-08-22T02:05:48.753Z,94.00
2018-08-22T02:08:17.918Z,94.10
2018-08-22T02:10:47.220Z,94.50
2018-08-22T02:13:16.486Z,94.10
2018-08-22T02:15:45.784Z,94.20
2018-08-22T02:18:15.027Z,94.20
2018-08-22T02:20:44.784Z,94.20
2018-08-22T02:23:14.057Z,94.20
2018-08-22T02:25:43.244Z,94.30
2018-08-22T02:28:12.457Z,94.30
2018-08-22T02:30:41.876Z,94.30
2018-08-22T02:33:11.245Z,94.30
2018-08-22T02:35:40.627Z,94.50
2018-08-22T02:38:09.846Z,94.40
2018-08-22T02:40:39.117Z,94.40
2018-08-22T02:43:08.261Z,94.50
2018-08-22T02:45:39.017Z,94.40
2018-08-22T02:48:08.378Z,94.40
2018-08-22T02:50:37.673Z,94.40
2018-08-22T02:53:06.870Z,94.50
2018-08-22T02:55:36.085Z,94.50
2018-08-22T02:58:06.090Z,94.50
2018-08-22T03:00:35.545Z,94.50
2018-08-22T03:03:04.830Z,94.40
2018-08-22T03:05:34.240Z,94.40
2018-08-22T03:08:03.720Z,94.40
2018-08-22T03:10:32.922Z,94.40
2018-08-22T03:13:02.173Z,94.50
2018-08-22T03:15:31.538Z,94.50
2018-08-22T03:18:01.064Z,94.50
2018-08-22T03:20:30.375Z,94.50
2018-08-22T03:22:59.591Z,94.60
2018-08-22T03:25:28.977Z,94.60
2018-08-22T03:27:58.179Z,94.70
2018-08-22T03:30:27.401Z,94.70
2018-08-22T03:32:56.940Z,94.70
2018-08-22T03:35:26.473Z,94.60
2018-08-22T03:37:55.864Z,94.90
2018-08-22T03:40:25.175Z,94.70
2018-08-22T03:42:54.424Z,94.80
2018-08-22T03:45:23.799Z,94.90
2018-08-22T03:47:53.155Z,94.80
2018-08-22T03:50:22.471Z,94.70
2018-08-22T03:52:51.749Z,94.70
2018-08-22T03:55:21.030Z,94.70
2018-08-22T03:57:50.370Z,94.70
2018-08-22T04:00:19.528Z,94.80
2018-08-22T04:02:51.292Z,94.80
2018-08-22T04:05:22.407Z,94.90
2018-08-22T04:07:53.454Z,95.00
2018-08-22T04:10:25.462Z,95.40
2018-08-22T04:12:55.145Z,95.50
2018-08-22T04:15:24.543Z,95.10
2018-08-22T04:17:53.990Z,95.10
2018-08-22T04:20:23.423Z,95.50
2018-08-22T04:22:52.629Z,95.10
2018-08-22T04:25:21.993Z,95.20
2018-08-22T04:27:51.581Z,95.00
2018-08-22T04:30:20.799Z,95.10
2018-08-22T04:32:50.199Z,95.10
2018-08-22T04:35:19.424Z,95.00
2018-08-22T04:37:48.901Z,95.00
2018-08-22T04:40:17.938Z,95.10
2018-08-22T04:42:47.528Z,95.20
2018-08-22T04:45:16.768Z,95.20
2018-08-22T04:47:46.746Z,95.10
2018-08-22T04:50:16.232Z,95.10
2018-08-22T04:52:45.475Z,95.10
2018-08-22T04:55:14.789Z,95.50
2018-08-22T04:57:43.765Z,95.00
2018-08-22T05:00:13.176Z,94.90
2018-08-22T05:02:42.516Z,95.00
2018-08-22T05:05:11.791Z,95.20
2018-08-22T05:07:41.013Z,95.10
2018-08-22T05:10:10.371Z,95.00
2018-08-22T05:12:39.829Z,95.00
2018-08-22T05:15:09.186Z,94.90
2018-08-22T05:17:38.601Z,94.80
2018-08-22T05:20:07.884Z,94.70
2018-08-22T05:22:37.238Z,95.00
2018-08-22T05:25:06.645Z,94.60
2018-08-22T05:27:35.995Z,94.50
2018-08-22T05:30:05.221Z,94.50
2018-08-22T05:32:34.364Z,94.50
2018-08-22T05:35:03.629Z,94.80
2018-08-22T05:37:32.972Z,94.50
2018-08-22T05:40:02.347Z,94.50
2018-08-22T05:42:31.683Z,94.50
2018-08-22T05:45:01.030Z,94.50
2018-08-22T05:47:30.236Z,94.60
2018-08-22T05:50:00.358Z,94.60
2018-08-22T05:52:29.857Z,94.60
2018-08-22T05:54:59.152Z,94.50
2018-08-22T05:57:28.482Z,94.60
2018-08-22T05:59:57.875Z,94.60
2018-08-22T06:02:27.180Z,95.10
2018-08-22T06:04:56.431Z,94.80
2018-08-22T06:07:25.715Z,94.90
2018-08-22T06:09:54.965Z,95.10
2018-08-22T06:12:24.317Z,95.30
2018-08-22T06:14:53.807Z,95.10
2018-08-22T06:17:23.039Z,95.00
2018-08-22T06:19:52.424Z,95.30
2018-08-22T06:22:21.779Z,95.20
2018-08-22T06:24:51.174Z,95.50
2018-08-22T06:27:20.769Z,95.80
2018-08-22T06:29:52.038Z,95.40
2018-08-22T06:32:21.299Z,95.00
2018-08-22T06:34:50.684Z,94.60
2018-08-22T06:37:20.269Z,94.60
2018-08-22T06:39:49.589Z,94.80
2018-08-22T06:42:19.007Z,94.60
2018-08-22T06:44:48.242Z,94.80
2018-08-22T06:47:17.624Z,94.60
2018-08-22T06:49:46.962Z,94.50
2018-08-22T06:52:17.459Z,94.00
2018-08-22T06:54:46.895Z,94.60
2018-08-22T06:57:16.293Z,94.40
2018-08-22T06:59:45.524Z,94.10
2018-08-22T07:02:14.766Z,93.70
2018-08-22T07:04:44.014Z,93.70
2018-08-22T07:07:13.404Z,93.60
2018-08-22T07:09:42.812Z,93.80
2018-08-22T07:12:12.109Z,93.90
2018-08-22T07:14:41.435Z,93.90
2018-08-22T07:17:10.846Z,93.50
2018-08-22T07:19:40.143Z,93.70
2018-08-22T07:22:10.951Z,93.80
2018-08-22T07:24:40.154Z,93.40
2018-08-22T07:27:09.378Z,93.30
2018-08-22T07:29:38.592Z,93.20
2018-08-22T07:32:07.959Z,93.10
2018-08-22T07:34:37.217Z,92.50
2018-08-22T07:37:06.669Z,93.20
2018-08-22T07:39:35.993Z,92.00
2018-08-22T07:42:05.514Z,91.70
2018-08-22T07:44:34.821Z,91.10
2018-08-22T07:47:04.214Z,91.60
2018-08-22T07:49:33.342Z,90.80
2018-08-22T07:52:02.596Z,91.20
2018-08-22T07:54:39.576Z,90.90
2018-08-22T07:57:08.921Z,90.50
2018-08-22T07:59:38.336Z,90.70
2018-08-22T08:02:10.238Z,90.50
2018-08-22T08:04:39.557Z,90.40
2018-08-22T08:07:08.861Z,90.50
2018-08-22T08:09:38.175Z,90.70
2018-08-22T08:12:07.574Z,90.80
2018-08-22T08:14:36.825Z,90.20
2018-08-22T08:17:06.026Z,90.10
2018-08-22T08:19:35.307Z,88.90
2018-08-22T08:22:04.600Z,88.70
2018-08-22T08:24:33.993Z,88.60
2018-08-22T08:27:03.391Z,88.70
2018-08-22T08:29:32.660Z,88.30
2018-08-22T08:32:01.994Z,87.80
2018-08-22T08:34:31.511Z,86.90
2018-08-22T08:37:00.935Z,86.60
2018-08-22T08:39:30.252Z,85.80
2018-08-22T08:41:59.522Z,85.00
2018-08-22T08:44:28.829Z,83.30
2018-08-22T08:46:58.160Z,80.80
2018-08-22T08:49:27.468Z,81.60
2018-08-22T08:51:59.621Z,83.90
2018-08-22T08:54:30.522Z,82.90
2018-08-22T08:56:59.874Z,80.50
2018-08-22T08:59:29.265Z,83.70
2018-08-22T09:01:58.590Z,81.40
2018-08-22T09:04:27.893Z,80.60
2018-08-22T09:06:57.186Z,80.40
2018-08-22T09:09:26.495Z,80.40
2018-08-22T09:11:58.251Z,80.20
2018-08-22T09:14:27.545Z,77.50
2018-08-22T09:16:57.240Z,78.10
2018-08-22T09:19:26.473Z,78.00
2018-08-22T09:21:56.056Z,77.50
2018-08-22T09:24:25.467Z,75.00
2018-08-22T09:26:55.324Z,76.50
2018-08-22T09:29:25.357Z,74.20
2018-08-22T09:31:54.630Z,75.00
2018-08-22T09:34:24.040Z,73.00
2018-08-22T09:36:53.361Z,75.10
2018-08-22T09:39:22.771Z,74.70
2018-08-22T09:41:51.976Z,72.60
2018-08-22T09:44:21.166Z,74.30
2018-08-22T09:46:50.610Z,73.40
2018-08-22T09:49:19.834Z,71.90
2018-08-22T09:51:49.062Z,72.80
2018-08-22T09:54:18.450Z,72.00
2018-08-22T09:56:48.880Z,73.30
2018-08-22T09:59:18.297Z,70.90
2018-08-22T10:01:47.618Z,70.80
2018-08-22T10:04:16.955Z,69.80
2018-08-22T10:06:48.611Z,69.70
2018-08-22T10:09:21.458Z,68.90
2018-08-22T10:11:50.987Z,68.10
2018-08-22T10:14:20.340Z,65.70
2018-08-22T10:16:49.651Z,69.10
2018-08-22T10:19:18.879Z,70.00
2018-08-22T10:21:47.895Z,67.90
2018-08-22T10:24:17.791Z,66.30
2018-08-22T10:26:47.291Z,67.30
2018-08-22T10:29:16.786Z,65.60
2018-08-22T10:31:46.045Z,63.20
2018-08-22T10:34:15.396Z,67.50
2018-08-22T10:36:44.694Z,67.40
2018-08-22T10:39:14.022Z,63.80
2018-08-22T10:41:43.418Z,66.50
2018-08-22T10:44:12.738Z,62.20
2018-08-22T10:46:42.065Z,61.80
2018-08-22T10:49:11.488Z,62.40
2018-08-22T10:51:41.505Z,61.80
2018-08-22T10:54:11.575Z,60.30
2018-08-22T10:56:40.876Z,60.00
2018-08-22T10:59:10.320Z,58.80
2018-08-22T11:01:39.792Z,61.80
2018-08-22T11:04:09.085Z,58.80
2018-08-22T11:06:38.313Z,61.40
2018-08-22T11:09:09.234Z,59.50
2018-08-22T11:11:38.560Z,59.00
2018-08-22T11:14:07.878Z,59.90
2018-08-22T11:16:37.168Z,58.30
2018-08-22T11:19:06.558Z,58.60
2018-08-22T11:21:46.849Z,60.20
2018-08-22T11:24:27.020Z,56.50
2018-08-22T11:27:07.249Z,55.70
2018-08-22T11:29:47.499Z,55.10
2018-08-22T11:32:28.085Z,54.80
2018-08-22T11:34:55.855Z,53.10
2018-08-22T11:37:25.168Z,55.80
2018-08-22T11:39:54.462Z,52.30
2018-08-22T11:42:23.755Z,55.10
2018-08-22T11:44:53.213Z,55.60
2018-08-22T11:47:22.522Z,55.40
2018-08-22T11:49:51.795Z,51.10
2018-08-22T11:52:21.155Z,52.20
2018-08-22T11:54:50.575Z,48.30
2018-08-22T11:57:19.857Z,49.10
2018-08-22T11:59:49.104Z,49.70
2018-08-22T12:02:18.471Z,50.30
2018-08-22T12:04:47.709Z,48.20
2018-08-22T12:07:17.155Z,49.90
2018-08-22T12:09:46.664Z,49.90
2018-08-22T12:12:15.901Z,49.10
2018-08-22T12:14:45.217Z,51.20
2018-08-22T12:17:14.306Z,50.90
2018-08-22T12:19:43.715Z,50.00
2018-08-22T12:22:13.090Z,50.60
2018-08-22T12:24:42.527Z,51.90
2018-08-22T12:27:11.953Z,51.70
2018-08-22T12:29:41.481Z,53.20
2018-08-22T12:32:10.820Z,53.40
2018-08-22T12:34:40.169Z,51.90
2018-08-22T12:37:09.450Z,51.00
2018-08-22T12:39:38.957Z,51.50
2018-08-22T12:42:08.700Z,54.00
2018-08-22T12:44:38.163Z,52.00
2018-08-22T12:47:07.458Z,50.20
2018-08-22T12:49:36.837Z,50.80
2018-08-22T12:52:06.305Z,50.40
2018-08-22T12:54:35.583Z,52.00
2018-08-22T12:57:05.005Z,52.00
2018-08-22T12:59:34.646Z,49.90
2018-08-22T13:02:03.837Z,50.00
2018-08-22T13:04:33.154Z,51.10
2018-08-22T13:07:02.565Z,52.10
2018-08-22T13:09:32.007Z,52.10
2018-08-22T13:12:01.486Z,52.20
2018-08-22T13:14:30.884Z,52.60
2018-08-22T13:17:00.391Z,55.70
2018-08-22T13:19:29.596Z,52.30
2018-08-22T13:21:58.865Z,49.30
2018-08-22T13:24:28.105Z,50.40
2018-08-22T13:26:57.496Z,49.80
2018-08-22T13:29:26.912Z,49.80
2018-08-22T13:31:56.208Z,49.00
2018-08-22T13:34:25.608Z,49.50
2018-08-22T13:36:54.921Z,50.30
2018-08-22T13:39:24.272Z,48.60
2018-08-22T13:41:53.541Z,50.20
2018-08-22T13:44:22.919Z,49.00
2018-08-22T13:46:52.327Z,50.40
2018-08-22T13:49:21.819Z,49.70
2018-08-22T13:51:51.212Z,52.90
2018-08-22T13:54:20.543Z,49.50
2018-08-22T13:56:49.918Z,49.40
2018-08-22T13:59:19.165Z,50.20
2018-08-22T14:01:48.496Z,49.70
2018-08-22T14:04:17.686Z,50.10
2018-08-22T14:06:47.047Z,47.90
2018-08-22T14:09:17.151Z,49.30
2018-08-22T14:11:46.450Z,47.90
2018-08-22T14:14:15.770Z,47.50
2018-08-22T14:16:45.271Z,46.80
2018-08-22T14:19:14.783Z,49.40
2018-08-22T14:21:44.100Z,49.70
2018-08-22T14:24:13.515Z,51.40
2018-08-22T14:26:42.739Z,50.30
2018-08-22T14:29:12.343Z,50.10
2018-08-22T14:31:41.833Z,49.60
2018-08-22T14:34:11.215Z,51.00
2018-08-22T14:36:40.374Z,49.20
2018-08-22T14:39:11.595Z,47.90
2018-08-22T14:41:41.069Z,50.10
2018-08-22T14:44:10.723Z,50.70
2018-08-22T14:46:40.125Z,49.80
2018-08-22T14:49:09.352Z,48.10
2018-08-22T14:51:38.905Z,48.80
2018-08-22T14:54:08.052Z,47.60
2018-08-22T14:56:37.545Z,49.50
2018-08-22T14:59:07.050Z,49.10
2018-08-22T15:01:36.526Z,49.40
2018-08-22T15:04:05.941Z,51.20
2018-08-22T15:06:35.203Z,50.90
2018-08-22T15:09:09.880Z,51.30
2018-08-22T15:11:39.761Z,52.50
2018-08-22T15:14:09.632Z,51.70
2018-08-22T15:16:39.006Z,51.40
2018-08-22T15:19:08.437Z,51.40
2018-08-22T15:21:37.668Z,51.00
2018-08-22T15:24:07.036Z,51.90
2018-08-22T15:26:36.385Z,52.00
2018-08-22T15:29:05.788Z,52.30
2018-08-22T15:31:35.105Z,52.70
2018-08-22T15:34:04.421Z,53.80
2018-08-22T15:36:35.900Z,52.50
2018-08-22T15:39:07.534Z,52.50
2018-08-22T15:41:36.919Z,52.40
2018-08-22T15:44:06.365Z,52.40
2018-08-22T15:46:35.616Z,51.80
2018-08-22T15:49:05.033Z,53.10
2018-08-22T15:51:34.307Z,53.90
2018-08-22T15:54:16.220Z,54.30
2018-08-22T15:56:45.630Z,53.30
2018-08-22T15:59:17.503Z,55.00
2018-08-22T16:01:46.807Z,55.20
2018-08-22T16:04:16.077Z,55.80
2018-08-22T16:06:45.758Z,55.30
2018-08-22T16:09:19.903Z,56.30
2018-08-22T16:11:49.285Z,57.10
2018-08-22T16:14:18.809Z,56.60
2018-08-22T16:16:48.186Z,56.60
2018-08-22T16:19:17.532Z,56.90
2018-08-22T16:21:46.940Z,58.10
2018-08-22T16:24:16.420Z,57.60
2018-08-22T16:26:45.779Z,58.00
2018-08-22T16:29:15.135Z,58.50
2018-08-22T16:31:46.024Z,58.40
2018-08-22T16:34:16.149Z,58.10
2018-08-22T16:36:45.552Z,58.30
2018-08-22T16:39:15.026Z,58.50
2018-08-22T16:41:44.416Z,59.20
2018-08-22T16:44:13.941Z,59.40
2018-08-22T16:46:43.363Z,59.40
2018-08-22T16:49:15.557Z,60.20
2018-08-22T16:51:45.033Z,60.60
2018-08-22T16:54:14.401Z,60.60
2018-08-22T16:56:43.760Z,61.60
2018-08-22T16:59:14.053Z,61.90
2018-08-22T17:01:48.299Z,61.90
2018-08-22T17:04:17.665Z,62.30
2018-08-22T17:06:47.310Z,62.40
2018-08-22T17:09:16.627Z,63.00
2018-08-22T17:11:47.883Z,62.80
2018-08-22T17:14:17.429Z,63.40
2018-08-22T17:16:46.796Z,63.60
2018-08-22T17:19:17.731Z,63.80
2018-08-22T17:21:47.191Z,65.00
2018-08-22T17:24:16.528Z,65.60
2018-08-22T17:26:45.835Z,66.50
2018-08-22T17:29:16.142Z,66.30
2018-08-22T17:31:50.483Z,67.00
2018-08-22T17:34:19.766Z,66.90
2018-08-22T17:37:00.763Z,67.10
2018-08-22T17:39:32.603Z,67.20
2018-08-22T17:42:03.355Z,66.90
2018-08-22T17:44:32.746Z,67.30
2018-08-22T17:47:02.242Z,67.80
2018-08-22T17:49:31.664Z,68.40
2018-08-22T17:52:05.667Z,68.70
2018-08-22T17:54:37.927Z,68.90
2018-08-22T17:57:22.996Z,69.30
2018-08-22T17:59:53.422Z,69.50
2018-08-22T18:02:23.954Z,69.70
2018-08-22T18:05:00.079Z,70.10
2018-08-22T18:07:29.612Z,70.90
2018-08-22T18:09:59.150Z,70.60
2018-08-22T18:12:28.669Z,71.10
2018-08-22T18:15:01.164Z,71.20
2018-08-22T18:17:30.468Z,71.50
2018-08-22T18:19:59.859Z,71.90
2018-08-22T18:22:30.633Z,72.70
2018-08-22T18:25:00.106Z,72.70
2018-08-22T18:27:29.573Z,72.60
2018-08-22T18:29:58.949Z,73.10
2018-08-22T18:32:28.298Z,73.60
2018-08-22T18:35:05.088Z,74.50
2018-08-22T18:37:34.198Z,74.50
2018-08-22T18:40:15.551Z,75.00
2018-08-22T18:42:54.006Z,75.30
2018-08-22T18:45:23.745Z,75.40
2018-08-22T18:47:52.988Z,76.00
2018-08-22T18:50:22.367Z,76.30
2018-08-22T18:52:54.862Z,76.80
2018-08-22T18:55:26.383Z,77.50
2018-08-22T18:57:58.112Z,78.40
2018-08-22T19:00:27.745Z,77.80
2018-08-22T19:02:58.203Z,77.70
2018-08-22T19:05:31.181Z,78.00
2018-08-22T19:08:05.029Z,78.70
2018-08-22T19:10:36.303Z,78.70
2018-08-22T19:13:24.746Z,79.00
2018-08-22T19:15:57.681Z,79.10
2018-08-22T19:18:27.248Z,79.70
2018-08-22T19:20:58.074Z,79.90
2018-08-22T19:23:28.891Z,80.20
2018-08-22T19:25:58.899Z,80.50
2018-08-22T19:28:28.273Z,80.90
2018-08-22T19:30:57.596Z,81.30
2018-08-22T19:33:28.147Z,81.40
2018-08-22T19:35:57.908Z,81.60
2018-08-22T19:38:28.165Z,81.50
2018-08-22T19:40:58.729Z,81.40
2018-08-22T19:43:28.131Z,81.10
2018-08-22T19:45:57.524Z,80.90
2018-08-22T19:48:26.853Z,81.40
2018-08-22T19:50:56.137Z,81.60
2018-08-22T19:53:25.533Z,81.90
2018-08-22T19:55:54.833Z,82.70
2018-08-22T19:58:28.380Z,83.00
2018-08-22T20:00:59.000Z,83.10
2018-08-22T20:03:32.321Z,83.60
2018-08-22T20:06:01.582Z,83.80
2018-08-22T20:08:35.935Z,83.60
2018-08-22T20:11:05.533Z,84.00
2018-08-22T20:13:46.986Z,84.30
2018-08-22T20:16:17.111Z,84.50
2018-08-22T20:18:49.270Z,85.70
2018-08-22T20:21:38.679Z,85.30
2018-08-22T20:24:10.600Z,85.50
2018-08-22T20:26:50.603Z,85.50
2018-08-22T20:29:20.050Z,85.40
2018-08-22T20:31:49.498Z,85.10
2018-08-22T20:34:18.965Z,85.20
2018-08-22T20:36:49.371Z,85.10
2018-08-22T20:39:18.724Z,85.10
2018-08-22T20:41:49.371Z,85.00
2018-08-22T20:44:21.617Z,85.30
2018-08-22T20:46:51.003Z,85.30
2018-08-22T20:49:20.892Z,85.50
2018-08-22T20:51:50.296Z,85.50
2018-08-22T20:54:22.838Z,86.00
2018-08-22T20:56:57.400Z,86.20
2018-08-22T20:59:26.696Z,86.90
2018-08-22T21:02:01.002Z,87.70
2018-08-22T21:04:31.431Z,87.70
2018-08-22T21:07:00.888Z,88.50
2018-08-22T21:09:30.642Z,88.30
2018-08-22T21:12:00.318Z,88.80
2018-08-22T21:14:30.555Z,89.00
2018-08-22T21:16:59.952Z,89.00
2018-08-22T21:19:29.311Z,89.90
2018-08-22T21:21:58.766Z,90.00
2018-08-22T21:24:28.062Z,90.00
2018-08-22T21:26:57.369Z,90.40
2018-08-22T21:29:26.723Z,90.60
2018-08-22T21:31:56.022Z,90.80
2018-08-22T21:34:25.293Z,91.00
2018-08-22T21:36:54.546Z,91.10
2018-08-22T21:39:24.038Z,91.20
2018-08-22T21:41:53.428Z,91.40
2018-08-22T21:44:23.434Z,91.80
2018-08-22T21:47:08.740Z,91.60
2018-08-22T21:49:37.921Z,91.70
2018-08-22T21:52:07.376Z,91.80
2018-08-22T21:54:36.737Z,91.90
2018-08-22T21:57:06.170Z,92.10
2018-08-22T21:59:35.573Z,92.10
2018-08-22T22:02:06.678Z,92.20
2018-08-22T22:04:37.924Z,92.30
2018-08-22T22:07:08.290Z,92.40
2018-08-22T22:09:38.357Z,92.20
2018-08-22T22:12:12.834Z,92.40
2018-08-22T22:14:46.752Z,92.30
2018-08-22T22:17:16.056Z,92.40
2018-08-22T22:19:45.590Z,92.50
2018-08-22T22:22:14.924Z,92.10
2018-08-22T22:24:50.247Z,91.90
2018-08-22T22:27:19.661Z,91.90
2018-08-22T22:29:48.987Z,91.80
2018-08-22T22:32:18.398Z,91.70
2018-08-22T22:34:47.796Z,91.70
2018-08-22T22:37:17.379Z,91.70
2018-08-22T22:39:47.184Z,91.80
2018-08-22T22:42:21.589Z,91.80
2018-08-22T22:44:52.626Z,92.10
2018-08-22T22:47:31.027Z,91.70
2018-08-22T22:50:01.675Z,91.90
2018-08-22T22:52:36.870Z,91.90
2018-08-22T22:55:07.125Z,91.90
2018-08-22T22:57:37.518Z,92.00
2018-08-22T23:00:08.834Z,92.10
2018-08-22T23:02:38.681Z,92.10
2018-08-22T23:05:08.118Z,92.30
2018-08-22T23:07:41.603Z,92.40
2018-08-22T23:10:13.595Z,92.50
2018-08-22T23:12:44.731Z,93.10
2018-08-22T23:15:19.805Z,93.50
2018-08-22T23:17:50.763Z,93.90
2018-08-22T23:20:28.199Z,94.30
2018-08-22T23:22:57.589Z,94.50
2018-08-22T23:25:27.164Z,94.70
2018-08-22T23:27:56.603Z,94.20
2018-08-22T23:30:30.855Z,94.10
2018-08-22T23:33:00.225Z,94.50
2018-08-22T23:35:30.731Z,95.00
2018-08-22T23:38:01.015Z,95.10
2018-08-22T23:40:31.484Z,95.40
2018-08-22T23:43:00.769Z,95.30
2018-08-22T23:45:30.311Z,94.90
2018-08-22T23:47:59.815Z,94.30
2018-08-22T23:50:41.652Z,94.40
2018-08-22T23:53:11.071Z,94.30
2018-08-22T23:55:40.327Z,94.20
2018-08-22T23:58:09.739Z,94.20
